Time;durP1;ratioP1;P1;durP2;ratioP2;P2;SDS_P1;SDS_P2;PMS_P1;PMS_P2;Temp;Humidity;BMP_temperature;BMP_pressure;BME280_temperature;BME280_humidity;BME280_pressure;Samples;Min_cycle;Max_cycle;Signal;HPM_P1;HPM_P2
2023/08/18 19:34:39;;;;;;;820.70;743.03;;;21.50;80.90;;;;;;4993123;27;1306427;-92
2023/08/18 19:37:07;;;;;;;905.67;814.55;;;21.30;79.00;;;;;;5003177;28;20042;-91
2023/08/18 19:39:33;;;;;;;909.67;821.65;;;21.40;79.20;;;;;;5023731;28;20305;-91
2023/08/18 19:41:59;;;;;;;934.30;841.78;;;21.30;79.50;;;;;;5010074;28;20046;-92
2023/08/18 19:44:25;;;;;;;952.05;855.13;;;21.30;79.70;;;;;;5044997;28;20041;-91
2023/08/18 19:46:51;;;;;;;935.90;842.50;;;21.30;79.80;;;;;;5015088;28;20103;-92
2023/08/18 19:49:16;;;;;;;924.97;830.65;;;21.30;80.00;;;;;;5012144;28;20080;-92
2023/08/18 19:51:42;;;;;;;972.33;869.67;;;21.30;80.20;;;;;;5047446;28;20455;-91
2023/08/18 19:54:08;;;;;;;956.50;855.03;;;21.30;80.30;;;;;;5013672;28;181441;-92
2023/08/18 19:56:34;;;;;;;967.88;865.38;;;21.20;80.30;;;;;;5001367;28;20079;-94
2023/08/18 19:59:00;;;;;;;939.58;842.88;;;21.20;80.40;;;;;;5022582;28;20060;-92
2023/08/18 20:01:26;;;;;;;948.88;851.38;;;21.20;80.50;;;;;;5027592;28;20080;-91
2023/08/18 20:03:52;;;;;;;935.00;841.90;;;21.10;80.50;;;;;;5010079;28;20054;-92
2023/08/18 20:06:17;;;;;;;920.67;829.85;;;21.10;80.50;;;;;;4974685;28;20060;-92
2023/08/18 20:08:43;;;;;;;944.25;845.28;;;21.10;80.60;;;;;;5025960;28;20056;-91
2023/08/18 20:11:10;;;;;;;952.88;853.22;;;21.10;80.60;;;;;;5028313;28;20092;-90
2023/08/18 20:13:36;;;;;;;932.33;837.67;;;21.10;80.70;;;;;;5025170;28;20081;-91
2023/08/18 20:16:02;;;;;;;958.20;861.53;;;21.10;80.70;;;;;;4995924;28;20076;-90
2023/08/18 20:18:29;;;;;;;909.63;818.95;;;21.10;80.70;;;;;;5003272;28;20046;-90
2023/08/18 20:22:07;;;;;;;;;;;;;;;;;;;;;
2023/08/18 21:29:18;;;;;;;933.70;842.45;;;20.30;82.10;;;;;;5006991;28;20041;-94
2023/08/18 21:32:22;;;;;;;905.72;818.75;;;20.30;82.20;;;;;;4986452;28;20066;-93
2023/08/18 21:35:45;;;;;;;;;;;;;;;;;;;;;
2023/08/18 21:38:19;;;;;;;924.20;833.10;;;20.30;82.40;;;;;;4978748;28;20054;-92
2023/08/18 21:45:47;;;;;;;898.10;812.45;;;20.30;82.40;;;;;;4953719;28;20124;-92
2023/08/18 21:48:22;;;;;;;893.95;808.90;;;20.30;82.40;;;;;;4866547;29;20078;-93
2023/08/18 21:51:56;;;;;;;900.70;816.00;;;20.30;82.40;;;;;;4885536;29;20052;-93
2023/08/18 21:58:14;;;;;;;941.92;847.08;;;20.30;82.40;;;;;;4762271;29;20470;-92
2023/08/18 22:00:48;;;;;;;946.63;851.80;;;20.30;82.50;;;;;;4821812;29;20050;-92
2023/08/18 22:03:19;;;;;;;893.00;810.08;;;20.30;82.40;;;;;;4812143;29;20050;-93
2023/08/18 22:06:38;;;;;;;866.75;787.30;;;20.30;82.40;;;;;;4857137;29;20056;-92
2023/08/18 22:09:08;;;;;;;906.38;818.30;;;20.30;82.40;;;;;;4829231;29;20054;-93
2023/08/18 22:12:06;;;;;;;922.60;833.00;;;20.30;82.50;;;;;;4861795;29;20063;-94
2023/08/18 22:14:53;;;;;;;913.75;823.83;;;20.30;82.50;;;;;;4842051;29;20048;-94
2023/08/18 22:17:31;;;;;;;;;;;;;;;;;;;;;
2023/08/18 22:20:23;;;;;;;889.28;804.13;;;20.20;82.70;;;;;;4923756;29;20052;-94
2023/08/18 22:22:57;;;;;;;903.08;815.88;;;20.20;82.80;;;;;;4920395;28;20060;-94
2023/08/18 22:26:12;;;;;;;892.65;806.60;;;20.30;82.90;;;;;;4974347;28;20053;-93
2023/08/18 22:29:10;;;;;;;856.58;778.60;;;20.30;83.00;;;;;;4982961;28;20058;-93
2023/08/18 22:31:48;;;;;;;886.15;803.58;;;20.30;83.20;;;;;;4982288;28;20057;-93
2023/08/18 22:37:22;;;;;;;890.00;806.55;;;20.20;83.10;;;;;;4992227;28;20042;-93
2023/08/18 22:39:55;;;;;;;864.90;787.05;;;20.30;83.20;;;;;;5004987;28;20109;-93
2023/08/18 22:42:21;;;;;;;875.30;795.63;;;20.30;83.30;;;;;;4990919;28;20045;-94
2023/08/18 22:44:54;;;;;;;897.20;813.00;;;20.30;83.30;;;;;;5023673;28;20103;-93
2023/08/18 22:47:32;;;;;;;;;;;;;;;;;;;;;
2023/08/18 22:50:03;;;;;;;864.55;785.08;;;20.30;83.40;;;;;;5012298;28;20045;-93
2023/08/18 22:52:53;;;;;;;889.47;806.90;;;20.30;83.50;;;;;;4993771;28;20104;-92
2023/08/18 22:56:14;;;;;;;;;;;;;;;;;;;;;
2023/08/18 22:59:15;;;;;;;867.08;787.47;;;20.30;83.60;;;;;;4931316;28;20046;-93
2023/08/18 23:01:59;;;;;;;900.38;814.97;;;20.30;83.50;;;;;;5010356;28;20053;-93
2023/08/18 23:04:56;;;;;;;877.47;796.40;;;20.20;83.60;;;;;;5028215;28;20054;-94
2023/08/18 23:07:47;;;;;;;865.58;786.28;;;20.20;83.80;;;;;;4997773;28;20055;-93
2023/08/18 23:14:06;;;;;;;867.17;787.75;;;20.30;83.90;;;;;;4942746;28;20125;-93
2023/08/18 23:20:37;;;;;;;883.30;802.53;;;20.30;84.00;;;;;;4865964;29;20649;-93
2023/08/18 23:23:32;;;;;;;862.33;785.08;;;20.30;84.00;;;;;;4856713;29;20086;-93
2023/08/18 23:26:01;;;;;;;873.17;792.47;;;20.30;84.00;;;;;;4858592;29;20563;-93
2023/08/18 23:28:55;;;;;;;866.40;789.97;;;20.30;83.90;;;;;;4884022;29;20142;-92
2023/08/18 23:32:22;;;;;;;;;;;;;;;;;;;;;
2023/08/18 23:35:21;;;;;;;;;;;;;;;;;;;;;
2023/08/18 23:38:21;;;;;;;885.10;806.38;;;20.30;84.00;;;;;;4999661;28;20046;-93
2023/08/18 23:40:56;;;;;;;862.00;784.55;;;20.30;84.20;;;;;;5010759;28;20057;-91
2023/08/18 23:43:50;;;;;;;828.20;755.80;;;20.20;84.10;;;;;;4999332;28;20046;-92
2023/08/18 23:46:32;;;;;;;877.25;797.20;;;20.20;84.20;;;;;;5026817;28;20119;-94
2023/08/18 23:49:51;;;;;;;866.83;791.03;;;20.20;84.20;;;;;;4976726;28;20072;-93
2023/08/18 23:52:08;;;;;;;858.88;782.72;;;20.10;84.20;;;;;;4989081;28;20060;-93
2023/08/18 23:59:30;;;;;;;861.65;783.28;;;20.10;84.30;;;;;;4889188;29;20072;-92
